Aviation Digital Data Service (ADDS)

Output produced by METARs form (2228 UTC 01 August 2014)
found at http://aviationweather.gov/adds/metars/
 
KLCH 011733Z 0118/0218 24005KT P6SM VCSH SCT025 OVC060 
     FM020200 VRB04KT P6SM SCT050 BKN200 
     FM021500 32004KT P6SM VCSH FEW015 BKN050 OVC200